Aérodrome :
LOGIN :

S'inscrire | Disclaimer

   EN    FR    IT 

 










Légende :    VFR   VFR Marginal   IFR   IFR Intensif   IFR Très Intensif
Visi : 
Plafond : 
>= 8 km
>= 3000ft
5 à 8 km
1000 à 3000 ft
1500m à 5 km
500 à 1000 ft
800 à 1500m
200 à 500 ft
< 800m
< 200 ft
Symboles :   Orages  Brouillard  Fortes neiges  Fortes précipitations  Vent > 20 kt
SIGMETs :   Divers  Orages  Givrage  Turbulence  Onde Orograph.  Cendres Volcan.







- Altitude de l'aérodrome : 170 ft
- Code IATA : BGO


ENBR - Bergen , Flesland

DERNIER METAR :
  • 211250Z 21009KT 9999 FEW006 SCT024 BKN035 17/13 Q1011 NOSIG RMK WIND 1200FT 19009KT

METARs EXPIRÉS :
  • 211220Z 21009KT 9999 FEW012 SCT025 BKN045 17/13 Q1011 NOSIG RMK WIND 1200FT 22008KT
  • 211150Z 21008KT 170V230 9999 FEW020 SCT045 BKN080 18/13 Q1010 NOSIG RMK WIND 1200FT 22008KT
  • 211120Z 21005KT 180V240 9999 SCT024 BKN080 18/13 Q1010 NOSIG RMK WIND 1200FT 24006KT
  • 211050Z 21005KT 9999 FEW016 SCT024 BKN080 17/13 Q1010 NOSIG RMK WIND 1200FT 22006KT
  • 211020Z 18007KT 9999 FEW025 SCT055 BKN080 17/13 Q1011 NOSIG RMK WIND 1200FT 18006KT

TAF TAF ENBR
Valide du 21 à 12h jusqu'au 22 à 12h UTC


2112/2212 24007KT 9999 SCT015 BKN030
TEMPO 2115/2203 4000 DZRA BR BKN008
Pas de NOTAMs connus pour ce terrain.
2 SIGMETs publiés pour la FIR Norway (ENOR) :
 
Orages fréquents
ENBD SIGMET D01 VALID 211210/211330 ENVN
ENOR NORWAY FIR FRQ TS OBS AT 1200Z WI N6850 E01515 - N6705 E01630 - N6555 E01515 - N6820 E01340 - N6850 E01515 TOP FL350 MOV NNE 10KT NC=
Orages fréquents
ENBD SIGMET C01 VALID 211125/211325 ENVV
ENOR NORWAY FIR FRQ TS OBS AT 1100Z WI N6200 E01000 - N6500 E01245 - N6500 E01410 - N6400 E01400 - N6345 E01225 - N6200 E01215 - N6200 E01000 TOP ABV FL250 MOV N 5KT INTSF=



MET'MAP, la Météo Aéronautique d'un coup d'oeil ! - Copyright ORBIFLY Décembre 2007 - Disclaimer

ORBIFLY MET'MAP TEAM :

Programmation & Développement : Alexandra Zaïnal
Conception & Développement : Baudouin d'Aumeries
Co-Programmation & Développement : Marc-Olivier Méhu
Soutien technique & logistique : Manuel Goepfert

Contact : metmap@orbifly.com




SOURCES & CREDITS :

   NOAA